TAF LECO
LECO 270800Z 2709/2809 35014KT 9999 FEW020 BKN030 TX09/2715Z TN07/2804Z TEMPO 2709/2724 33018G30KT PROB40 TEMPO 2709/2721 3000 RA BKN010=
METAR LECO
LECO 270830Z 35012KT 300V050 9999 SCT045 10/03 Q1014 TEMPO 3000 RA=
LECO 270800Z 35012G26KT 300V050 9999 SCT043 10/05 Q1014 TEMPO 3000 RA=
LECO 270730Z 34015G25KT 300V020 9999 SCT047 10/02 Q1013 TEMPO 3000 RA=
LECO 270700Z 34012G23KT 300V020 9999 BKN045 10/05 Q1013 RERA TEMPO 3000 RA=
LECO 270630Z 34011KT 290V030 9999 BKN045 09/05 Q1013 RERA TEMPO 3000 RA=
WC LECO
WS LECO
WV LECO